Blyn, Washington
Current Conditions -  °F | °C
As of 8:00 PM on Friday 24 Oct 2014 (Local Time) from CYWH Reporting Station
Overcast Overcast  
Wind Chill: 52°   Ceiling: 15000
Heat Index: 52°   Visibility: 15mi
Dew Point: 46°   Wind: 7mph
Humidity: 82%   Direction: 20°NNE
Pressure: 29.87"   Gusts: NA
Location:  48.0015°N, 123.09°W
Report Text: CYWH 250300Z 02006KT 15SM BKN150 OVC220 11/08 A2987 RMK AC6CS2SLP115
Loading
Personal Weather Stations






























Interactive Weather Map
Tropical Storm Tracking
New forecast layout! Learn more

10-Day Weather Forecast

Advertisements
Track Severe Weather on mobile